createdAt,value
2018-06-03T00:00:17.174Z,0
2018-06-03T00:01:17.406Z,0
2018-06-03T00:02:17.147Z,0
2018-06-03T00:03:17.127Z,0
2018-06-03T00:04:17.108Z,0
2018-06-03T00:05:16.574Z,0
2018-06-03T00:06:17.354Z,0
2018-06-03T00:07:16.816Z,0
2018-06-03T00:08:16.819Z,0
2018-06-03T00:09:17.323Z,0
2018-06-03T00:10:16.791Z,0
2018-06-03T00:11:16.255Z,0
2018-06-03T00:12:17.031Z,0
2018-06-03T00:13:17.191Z,0
2018-06-03T00:14:16.747Z,0
2018-06-03T00:15:17.059Z,0
2018-06-03T00:16:16.730Z,0
2018-06-03T00:17:16.992Z,0
2018-06-03T00:18:16.697Z,0
2018-06-03T00:19:17.242Z,0
2018-06-03T00:20:16.978Z,0
2018-06-03T00:21:16.686Z,0
2018-06-03T00:22:16.689Z,0
2018-06-03T00:23:16.939Z,0
2018-06-03T00:24:16.658Z,0
2018-06-03T00:25:16.904Z,0
2018-06-03T00:26:16.694Z,0
2018-06-03T00:27:17.168Z,0
2018-06-03T00:28:17.197Z,0
2018-06-03T00:29:17.138Z,0
2018-06-03T00:30:17.181Z,0
2018-06-03T00:31:17.113Z,0
2018-06-03T00:32:16.829Z,0
2018-06-03T00:33:17.110Z,0
2018-06-03T00:34:16.276Z,0
2018-06-03T00:35:16.802Z,0
2018-06-03T00:36:16.787Z,0
2018-06-03T00:37:16.249Z,0
2018-06-03T00:38:17.028Z,0
2018-06-03T00:39:17.030Z,0
2018-06-03T00:40:16.792Z,0
2018-06-03T00:41:16.466Z,0
2018-06-03T00:42:16.728Z,0
2018-06-03T00:43:16.189Z,0
2018-06-03T00:44:16.707Z,0
2018-06-03T00:45:16.713Z,0
2018-06-03T00:46:16.694Z,0
2018-06-03T00:47:16.672Z,0
2018-06-03T00:48:16.927Z,0
2018-06-03T00:49:16.386Z,0
2018-06-03T00:50:16.667Z,0
2018-06-03T00:51:16.642Z,0
2018-06-03T00:52:16.638Z,0
2018-06-03T00:53:16.665Z,0
2018-06-03T00:54:16.332Z,0
2018-06-03T00:55:15.791Z,0
2018-06-03T00:56:16.050Z,0
2018-06-03T00:57:16.563Z,0
2018-06-03T00:58:16.303Z,0
2018-06-03T00:59:16.806Z,0
2018-06-03T01:00:16.294Z,0
2018-06-03T01:01:16.799Z,0
2018-06-03T01:02:16.793Z,0
2018-06-03T01:03:16.237Z,0
2018-06-03T01:04:16.496Z,0
2018-06-03T01:05:16.478Z,0
2018-06-03T01:06:15.946Z,0
2018-06-03T01:07:15.927Z,0
2018-06-03T01:08:16.450Z,0
2018-06-03T01:09:16.705Z,0
2018-06-03T01:10:15.642Z,0
2018-06-03T01:11:16.414Z,0
2018-06-03T01:12:16.427Z,0
2018-06-03T01:13:16.401Z,0
2018-06-03T01:14:16.652Z,0
2018-06-03T01:15:16.125Z,0
2018-06-03T01:16:16.092Z,0
2018-06-03T01:17:16.084Z,0
2018-06-03T01:18:16.347Z,0
2018-06-03T01:19:16.615Z,0
2018-06-03T01:20:16.322Z,0
2018-06-03T01:21:16.038Z,0
2018-06-03T01:22:16.301Z,0
2018-06-03T01:23:16.022Z,0
2018-06-03T01:24:15.749Z,0
2018-06-03T01:25:16.010Z,0
2018-06-03T01:26:15.723Z,0
2018-06-03T01:27:15.982Z,0
2018-06-03T01:28:16.514Z,0
2018-06-03T01:29:15.956Z,0
2018-06-03T01:30:16.216Z,0
2018-06-03T01:31:16.201Z,0
2018-06-03T01:32:16.457Z,0
2018-06-03T01:33:15.917Z,0
2018-06-03T01:34:16.177Z,0
2018-06-03T01:35:16.429Z,0
2018-06-03T01:36:15.883Z,0
2018-06-03T01:37:16.398Z,0
2018-06-03T01:38:16.389Z,0
2018-06-03T01:39:15.846Z,0
2018-06-03T01:40:16.100Z,0
2018-06-03T01:41:16.096Z,0
2018-06-03T01:42:16.078Z,0
2018-06-03T01:43:16.062Z,0
2018-06-03T01:44:15.800Z,0
2018-06-03T01:45:15.795Z,0
2018-06-03T01:46:15.765Z,0
2018-06-03T01:47:15.766Z,0
2018-06-03T01:48:15.754Z,0
2018-06-03T01:49:15.743Z,0
2018-06-03T01:50:16.035Z,0
2018-06-03T01:51:15.984Z,0
2018-06-03T01:52:15.704Z,0
2018-06-03T01:53:15.958Z,0
2018-06-03T01:54:15.950Z,0
2018-06-03T01:55:15.680Z,0
2018-06-03T01:56:15.401Z,0
2018-06-03T01:57:16.180Z,0
2018-06-03T01:58:15.373Z,0
2018-06-03T01:59:15.649Z,0
2018-06-03T02:00:15.352Z,0
2018-06-03T02:01:15.610Z,0
2018-06-03T02:02:15.658Z,0
2018-06-03T02:03:15.851Z,0
2018-06-03T02:04:15.360Z,0
2018-06-03T02:05:15.556Z,0
2018-06-03T02:06:15.550Z,0
2018-06-03T02:07:15.286Z,0
2018-06-03T02:08:15.799Z,0
2018-06-03T02:09:15.521Z,0
2018-06-03T02:10:16.046Z,0
2018-06-03T02:11:15.502Z,0
2018-06-03T02:12:15.749Z,0
2018-06-03T02:13:15.471Z,0
2018-06-03T02:14:15.731Z,0
2018-06-03T02:15:15.455Z,0
2018-06-03T02:16:15.442Z,0
2018-06-03T02:17:14.913Z,0
2018-06-03T02:18:15.948Z,0
2018-06-03T02:19:15.413Z,0
2018-06-03T02:20:15.403Z,0
2018-06-03T02:21:15.390Z,0
2018-06-03T02:22:15.893Z,0
2018-06-03T02:23:15.370Z,0
2018-06-03T02:24:15.638Z,0
2018-06-03T02:25:15.880Z,0
2018-06-03T02:26:15.334Z,0
2018-06-03T02:27:15.583Z,0
2018-06-03T02:28:15.572Z,0
2018-06-03T02:29:15.847Z,0
2018-06-03T02:30:15.561Z,0
2018-06-03T02:31:15.554Z,0
2018-06-03T02:32:15.274Z,0
2018-06-03T02:33:14.994Z,0
2018-06-03T02:34:14.990Z,0
2018-06-03T02:35:15.832Z,0
2018-06-03T02:36:15.759Z,0
2018-06-03T02:37:15.210Z,0
2018-06-03T02:38:15.459Z,0
2018-06-03T02:39:15.472Z,0
2018-06-03T02:40:15.180Z,0
2018-06-03T02:41:15.373Z,0
2018-06-03T02:42:15.170Z,0
2018-06-03T02:43:14.891Z,0
2018-06-03T02:44:14.889Z,0
2018-06-03T02:45:15.396Z,0
2018-06-03T02:46:15.374Z,0
2018-06-03T02:47:15.098Z,0
2018-06-03T02:48:15.361Z,0
2018-06-03T02:49:15.075Z,0
2018-06-03T02:50:15.372Z,0
2018-06-03T02:51:15.366Z,0
2018-06-03T02:52:15.579Z,0
2018-06-03T02:53:15.044Z,0
2018-06-03T02:54:15.562Z,0
2018-06-03T02:55:15.013Z,0
2018-06-03T02:56:14.733Z,0
2018-06-03T02:57:14.745Z,0
2018-06-03T02:58:14.730Z,0
2018-06-03T02:59:14.966Z,0
2018-06-03T03:00:14.972Z,0
2018-06-03T03:01:14.946Z,0
2018-06-03T03:02:15.192Z,0
2018-06-03T03:03:15.233Z,0
2018-06-03T03:04:15.180Z,0
2018-06-03T03:05:15.173Z,0
2018-06-03T03:06:15.441Z,0
2018-06-03T03:07:15.409Z,0
2018-06-03T03:08:14.331Z,0
2018-06-03T03:09:15.121Z,0
2018-06-03T03:10:14.892Z,0
2018-06-03T03:11:15.382Z,0
2018-06-03T03:12:15.368Z,0
2018-06-03T03:13:15.077Z,0
2018-06-03T03:14:15.061Z,0
2018-06-03T03:15:15.044Z,0
2018-06-03T03:16:14.799Z,0
2018-06-03T03:17:15.295Z,0
2018-06-03T03:18:15.011Z,0
2018-06-03T03:19:15.266Z,0
2018-06-03T03:20:15.197Z,0
2018-06-03T03:21:14.977Z,0
2018-06-03T03:22:14.438Z,0
2018-06-03T03:23:14.696Z,5
2018-06-03T03:24:14.950Z,5
2018-06-03T03:25:14.409Z,5
2018-06-03T03:26:14.665Z,5
2018-06-03T03:27:14.905Z,5
2018-06-03T03:28:14.918Z,5
2018-06-03T03:29:14.899Z,5
2018-06-03T03:30:14.897Z,5
2018-06-03T03:31:14.871Z,5
2018-06-03T03:32:14.600Z,5
2018-06-03T03:33:14.895Z,5
2018-06-03T03:34:15.115Z,5
2018-06-03T03:35:15.098Z,5
2018-06-03T03:36:14.813Z,5
2018-06-03T03:37:14.543Z,10
2018-06-03T03:38:15.074Z,10
2018-06-03T03:39:14.526Z,10
2018-06-03T03:40:14.020Z,10
2018-06-03T03:41:14.768Z,10
2018-06-03T03:42:15.002Z,10
2018-06-03T03:43:14.722Z,10
2018-06-03T03:44:14.720Z,10
2018-06-03T03:45:14.705Z,10
2018-06-03T03:46:14.430Z,10
2018-06-03T03:47:14.420Z,15
2018-06-03T03:48:14.671Z,15
2018-06-03T03:49:14.655Z,15
2018-06-03T03:50:14.660Z,15
2018-06-03T03:51:14.118Z,15
2018-06-03T03:52:14.356Z,15
2018-06-03T03:53:14.359Z,15
2018-06-03T03:54:14.617Z,15
2018-06-03T03:55:14.632Z,15
2018-06-03T03:56:14.359Z,20
2018-06-03T03:57:14.832Z,20
2018-06-03T03:58:14.335Z,20
2018-06-03T03:59:14.033Z,20
2018-06-03T04:00:14.295Z,20
2018-06-03T04:01:14.532Z,20
2018-06-03T04:02:14.509Z,20
2018-06-03T04:03:14.778Z,20
2018-06-03T04:04:14.217Z,25
2018-06-03T04:05:14.219Z,25
2018-06-03T04:06:14.733Z,25
2018-06-03T04:07:13.922Z,25
2018-06-03T04:08:14.443Z,25
2018-06-03T04:09:14.169Z,25
2018-06-03T04:10:14.204Z,25
2018-06-03T04:11:13.608Z,25
2018-06-03T04:12:14.427Z,25
2018-06-03T04:13:14.822Z,25
2018-06-03T04:14:14.425Z,30
2018-06-03T04:15:14.372Z,30
2018-06-03T04:16:14.654Z,30
2018-06-03T04:17:14.342Z,30
2018-06-03T04:18:14.326Z,35
2018-06-03T04:19:14.330Z,35
2018-06-03T04:20:14.573Z,35
2018-06-03T04:21:28.933Z,35
2018-06-03T04:22:14.270Z,35
2018-06-03T04:23:13.790Z,35
2018-06-03T04:24:13.999Z,40
2018-06-03T04:25:14.241Z,40
2018-06-03T04:26:13.961Z,40
2018-06-03T04:27:14.241Z,40
2018-06-03T04:28:14.216Z,40
2018-06-03T04:29:13.940Z,40
2018-06-03T04:30:14.186Z,40
2018-06-03T04:31:14.174Z,40
2018-06-03T04:32:13.632Z,40
2018-06-03T04:33:14.153Z,40
2018-06-03T04:34:13.872Z,40
2018-06-03T04:35:13.594Z,40
2018-06-03T04:36:14.125Z,45
2018-06-03T04:37:13.840Z,45
2018-06-03T04:38:14.110Z,45
2018-06-03T04:39:14.102Z,45
2018-06-03T04:40:13.822Z,45
2018-06-03T04:41:13.527Z,50
2018-06-03T04:42:13.549Z,50
2018-06-03T04:43:14.064Z,55
2018-06-03T04:44:13.759Z,55
2018-06-03T04:45:14.018Z,60
2018-06-03T04:46:13.765Z,60
2018-06-03T04:47:13.454Z,60
2018-06-03T04:48:13.978Z,60
2018-06-03T04:49:13.451Z,65
2018-06-03T04:50:13.688Z,65
2018-06-03T04:51:13.946Z,65
2018-06-03T04:52:13.677Z,65
2018-06-03T04:53:14.193Z,65
2018-06-03T04:54:13.651Z,65
2018-06-03T04:55:13.746Z,65
2018-06-03T04:56:13.891Z,65
2018-06-03T04:57:13.089Z,65
2018-06-03T04:58:14.170Z,65
2018-06-03T04:59:13.590Z,65
2018-06-03T05:00:13.863Z,65
2018-06-03T05:01:13.590Z,65
2018-06-03T05:02:13.295Z,65
2018-06-03T05:03:14.074Z,65
2018-06-03T05:04:13.826Z,65
2018-06-03T05:05:13.527Z,65
2018-06-03T05:06:13.253Z,65
2018-06-03T05:07:14.056Z,70
2018-06-03T05:08:13.495Z,70
2018-06-03T05:09:13.215Z,70
2018-06-03T05:10:13.217Z,70
2018-06-03T05:11:13.993Z,75
2018-06-03T05:12:13.776Z,75
2018-06-03T05:13:13.991Z,75
2018-06-03T05:14:13.963Z,75
2018-06-03T05:15:13.149Z,80
2018-06-03T05:16:13.664Z,80
2018-06-03T05:17:13.651Z,80
2018-06-03T05:18:13.664Z,80
2018-06-03T05:19:13.371Z,85
2018-06-03T05:20:13.375Z,85
2018-06-03T05:21:13.345Z,80
2018-06-03T05:22:13.860Z,80
2018-06-03T05:23:13.864Z,80
2018-06-03T05:24:13.320Z,80
2018-06-03T05:25:13.570Z,80
2018-06-03T05:26:13.567Z,80
2018-06-03T05:27:13.547Z,80
2018-06-03T05:28:13.539Z,85
2018-06-03T05:29:12.999Z,85
2018-06-03T05:30:13.001Z,85
2018-06-03T05:31:13.787Z,85
2018-06-03T05:32:13.231Z,95
2018-06-03T05:33:13.753Z,95
2018-06-03T05:34:13.478Z,90
2018-06-03T05:35:13.484Z,90
2018-06-03T05:36:12.934Z,90
2018-06-03T05:37:12.921Z,95
2018-06-03T05:38:13.435Z,95
2018-06-03T05:39:13.423Z,95
2018-06-03T05:40:13.409Z,95
2018-06-03T05:41:13.136Z,95
2018-06-03T05:42:13.657Z,95
2018-06-03T05:43:13.644Z,95
2018-06-03T05:44:13.372Z,105
2018-06-03T05:45:13.099Z,110
2018-06-03T05:46:13.086Z,115
2018-06-03T05:47:13.115Z,125
2018-06-03T05:48:13.072Z,120
2018-06-03T05:49:13.053Z,120
2018-06-03T05:50:13.315Z,115
2018-06-03T05:51:12.501Z,115
2018-06-03T05:52:13.568Z,115
2018-06-03T05:53:13.005Z,115
2018-06-03T05:54:13.573Z,120
2018-06-03T05:55:12.992Z,115
2018-06-03T05:56:12.710Z,110
2018-06-03T05:57:13.241Z,115
2018-06-03T05:58:13.221Z,115
2018-06-03T05:59:12.945Z,120
2018-06-03T06:00:13.221Z,120
2018-06-03T06:01:13.461Z,120
2018-06-03T06:02:12.938Z,120
2018-06-03T06:03:12.917Z,115
2018-06-03T06:04:12.913Z,115
2018-06-03T06:05:12.883Z,115
2018-06-03T06:06:12.884Z,115
2018-06-03T06:07:12.876Z,115
2018-06-03T06:08:13.138Z,120
2018-06-03T06:09:12.910Z,120
2018-06-03T06:10:13.112Z,120
2018-06-03T06:11:13.108Z,115
2018-06-03T06:12:13.345Z,115
2018-06-03T06:13:13.076Z,115
2018-06-03T06:14:12.807Z,115
2018-06-03T06:15:13.054Z,120
2018-06-03T06:16:13.048Z,125
2018-06-03T06:17:13.041Z,125
2018-06-03T06:18:13.032Z,135
2018-06-03T06:19:12.758Z,145
2018-06-03T06:20:13.562Z,145
2018-06-03T06:21:12.738Z,150
2018-06-03T06:22:12.757Z,145
2018-06-03T06:23:12.453Z,145
2018-06-03T06:24:12.435Z,145
2018-06-03T06:25:13.243Z,135
2018-06-03T06:26:12.949Z,135
2018-06-03T06:27:12.955Z,135
2018-06-03T06:28:12.948Z,135
2018-06-03T06:29:12.924Z,135
2018-06-03T06:30:12.379Z,135
2018-06-03T06:31:12.106Z,130
2018-06-03T06:32:12.370Z,130
2018-06-03T06:33:12.358Z,130
2018-06-03T06:34:12.613Z,130
2018-06-03T06:35:12.608Z,130
2018-06-03T06:36:13.155Z,135
2018-06-03T06:37:12.859Z,140
2018-06-03T06:38:12.578Z,145
2018-06-03T06:39:12.568Z,145
2018-06-03T06:40:12.370Z,145
2018-06-03T06:41:13.289Z,140
2018-06-03T06:42:12.283Z,140
2018-06-03T06:43:12.268Z,135
2018-06-03T06:44:12.814Z,130
2018-06-03T06:45:12.781Z,130
2018-06-03T06:46:12.503Z,130
2018-06-03T06:47:12.766Z,130
2018-06-03T06:48:13.023Z,130
2018-06-03T06:49:13.014Z,135
2018-06-03T06:50:12.259Z,135
2018-06-03T06:51:12.460Z,135
2018-06-03T06:52:12.459Z,135
2018-06-03T06:53:12.710Z,135
2018-06-03T06:54:12.980Z,135
2018-06-03T06:55:12.973Z,135
2018-06-03T06:56:12.684Z,140
2018-06-03T06:57:12.663Z,140
2018-06-03T06:58:12.404Z,145
2018-06-03T06:59:11.856Z,150
2018-06-03T07:00:12.822Z,150
2018-06-03T07:01:12.641Z,155
2018-06-03T07:02:12.360Z,160
2018-06-03T07:03:12.619Z,165
2018-06-03T07:04:12.345Z,170
2018-06-03T07:05:12.614Z,175
2018-06-03T07:06:12.339Z,175
2018-06-03T07:07:12.333Z,175
2018-06-03T07:08:12.583Z,170
2018-06-03T07:09:12.305Z,165
2018-06-03T07:10:12.306Z,150
2018-06-03T07:11:12.553Z,135
2018-06-03T07:12:12.320Z,120
2018-06-03T07:13:13.080Z,120
2018-06-03T07:14:12.269Z,115
2018-06-03T07:15:12.519Z,115
2018-06-03T07:16:12.239Z,115
2018-06-03T07:17:12.760Z,115
2018-06-03T07:18:12.270Z,110
2018-06-03T07:19:12.473Z,110
2018-06-03T07:20:12.202Z,105
2018-06-03T07:21:12.303Z,100
2018-06-03T07:22:12.469Z,95
2018-06-03T07:23:12.208Z,90
2018-06-03T07:24:12.182Z,90
2018-06-03T07:25:12.435Z,90
2018-06-03T07:26:12.417Z,95
2018-06-03T07:27:12.422Z,100
2018-06-03T07:28:12.142Z,100
2018-06-03T07:29:12.174Z,105
2018-06-03T07:30:12.112Z,110
2018-06-03T07:31:12.109Z,115
2018-06-03T07:32:12.548Z,115
2018-06-03T07:33:12.092Z,120
2018-06-03T07:34:11.860Z,120
2018-06-03T07:35:11.818Z,125
2018-06-03T07:36:12.072Z,125
2018-06-03T07:37:11.527Z,130
2018-06-03T07:38:12.589Z,140
2018-06-03T07:39:12.393Z,145
2018-06-03T07:40:11.798Z,150
2018-06-03T07:41:12.040Z,155
2018-06-03T07:42:12.020Z,155
2018-06-03T07:43:12.560Z,155
2018-06-03T07:44:11.751Z,155
2018-06-03T07:45:12.263Z,155
2018-06-03T07:46:12.252Z,160
2018-06-03T07:47:12.236Z,160
2018-06-03T07:48:12.230Z,160
2018-06-03T07:49:12.228Z,160
2018-06-03T07:50:12.527Z,160
2018-06-03T07:51:11.945Z,160
2018-06-03T07:52:11.927Z,155
2018-06-03T07:53:11.915Z,155
2018-06-03T07:54:12.451Z,165
2018-06-03T07:55:11.639Z,160
2018-06-03T07:56:11.623Z,160
2018-06-03T07:57:12.415Z,160
2018-06-03T07:58:11.887Z,155
2018-06-03T07:59:11.870Z,150
2018-06-03T08:00:11.589Z,150
2018-06-03T08:01:12.119Z,150
2018-06-03T08:02:11.838Z,155
2018-06-03T08:03:12.096Z,160
2018-06-03T08:04:11.838Z,165
2018-06-03T08:05:11.546Z,175
2018-06-03T08:06:11.921Z,175
2018-06-03T08:07:11.799Z,180
2018-06-03T08:08:12.319Z,190
2018-06-03T08:09:12.047Z,200
2018-06-03T08:10:12.303Z,205
2018-06-03T08:11:12.037Z,220
2018-06-03T08:12:11.538Z,230
2018-06-03T08:13:12.290Z,240
2018-06-03T08:14:11.472Z,250
2018-06-03T08:15:11.997Z,260
2018-06-03T08:16:12.255Z,255
2018-06-03T08:17:11.993Z,255
2018-06-03T08:18:11.444Z,245
2018-06-03T08:19:11.709Z,240
2018-06-03T08:20:12.217Z,240
2018-06-03T08:21:11.698Z,250
2018-06-03T08:22:11.945Z,255
2018-06-03T08:23:11.669Z,255
2018-06-03T08:24:11.941Z,265
2018-06-03T08:25:11.385Z,275
2018-06-03T08:26:11.385Z,280
2018-06-03T08:27:11.908Z,285
2018-06-03T08:28:11.096Z,295
2018-06-03T08:29:11.355Z,300
2018-06-03T08:30:12.160Z,315
2018-06-03T08:31:11.606Z,320
2018-06-03T08:32:11.867Z,320
2018-06-03T08:33:11.582Z,330
2018-06-03T08:34:11.581Z,345
2018-06-03T08:35:11.840Z,385
2018-06-03T08:36:11.297Z,365
2018-06-03T08:37:11.876Z,360
2018-06-03T08:38:11.310Z,350
2018-06-03T08:39:11.026Z,415
2018-06-03T08:40:11.572Z,335
2018-06-03T08:41:11.796Z,335
2018-06-03T08:42:11.519Z,315
2018-06-03T08:43:11.285Z,305
2018-06-03T08:44:11.242Z,295
2018-06-03T08:45:11.759Z,295
2018-06-03T08:46:11.758Z,305
2018-06-03T08:47:11.512Z,335
2018-06-03T08:48:11.764Z,355
2018-06-03T08:49:11.787Z,350
2018-06-03T08:50:11.721Z,360
2018-06-03T08:51:11.471Z,340
2018-06-03T08:52:11.595Z,295
2018-06-03T08:53:11.172Z,280
2018-06-03T08:54:11.976Z,300
2018-06-03T08:55:11.170Z,310
2018-06-03T08:56:11.421Z,325
2018-06-03T08:57:11.435Z,340
2018-06-03T08:58:11.687Z,340
2018-06-03T08:59:10.887Z,315
2018-06-03T09:00:11.403Z,295
2018-06-03T09:01:11.394Z,245
2018-06-03T09:02:11.936Z,225
2018-06-03T09:03:11.648Z,210
2018-06-03T09:04:11.646Z,205
2018-06-03T09:05:11.376Z,205
2018-06-03T09:06:11.629Z,210
2018-06-03T09:07:11.364Z,220
2018-06-03T09:08:11.876Z,235
2018-06-03T09:09:11.351Z,260
2018-06-03T09:10:11.340Z,285
2018-06-03T09:11:11.349Z,310
2018-06-03T09:12:11.587Z,330
2018-06-03T09:13:11.135Z,345
2018-06-03T09:14:11.586Z,350
2018-06-03T09:15:11.575Z,345
2018-06-03T09:16:11.314Z,355
2018-06-03T09:17:11.353Z,385
2018-06-03T09:18:11.566Z,445
2018-06-03T09:19:11.296Z,505
2018-06-03T09:20:11.814Z,625
2018-06-03T09:21:11.277Z,470
2018-06-03T09:22:10.999Z,450
2018-06-03T09:23:10.996Z,495
2018-06-03T09:24:11.528Z,555
2018-06-03T09:25:11.605Z,325
2018-06-03T09:26:11.778Z,275
2018-06-03T09:27:11.298Z,245
2018-06-03T09:28:11.767Z,235
2018-06-03T09:29:11.496Z,230
2018-06-03T09:30:11.487Z,235
2018-06-03T09:31:11.494Z,245
2018-06-03T09:32:11.473Z,250
2018-06-03T09:33:11.482Z,255
2018-06-03T09:34:11.749Z,275
2018-06-03T09:35:11.032Z,310
2018-06-03T09:36:10.923Z,450
2018-06-03T09:37:11.453Z,570
2018-06-03T09:38:11.438Z,490
2018-06-03T09:39:11.434Z,495
2018-06-03T09:40:11.174Z,490
2018-06-03T09:41:11.428Z,475
2018-06-03T09:42:11.735Z,480
2018-06-03T09:43:11.408Z,495
2018-06-03T09:44:10.875Z,540
2018-06-03T09:45:10.886Z,525
2018-06-03T09:46:11.131Z,525
2018-06-03T09:47:11.651Z,515
2018-06-03T09:48:11.538Z,515
2018-06-03T09:49:10.849Z,430
2018-06-03T09:50:10.860Z,375
2018-06-03T09:51:10.832Z,340
2018-06-03T09:52:11.380Z,340
2018-06-03T09:53:12.072Z,360
2018-06-03T09:54:10.831Z,410
2018-06-03T09:55:11.071Z,380
2018-06-03T09:56:11.338Z,330
2018-06-03T09:57:11.079Z,335
2018-06-03T09:58:11.064Z,365
2018-06-03T09:59:11.333Z,480
2018-06-03T10:00:10.782Z,515
2018-06-03T10:01:11.053Z,715
2018-06-03T10:02:11.052Z,535
2018-06-03T10:03:10.780Z,535
2018-06-03T10:04:11.061Z,510
2018-06-03T10:05:11.032Z,475
2018-06-03T10:06:11.288Z,440
2018-06-03T10:07:11.088Z,405
2018-06-03T10:08:11.282Z,385
2018-06-03T10:09:11.570Z,395
2018-06-03T10:10:11.375Z,425
2018-06-03T10:11:10.992Z,570
2018-06-03T10:12:11.260Z,1040
2018-06-03T10:13:11.535Z,840
2018-06-03T10:14:11.247Z,1695
2018-06-03T10:15:11.271Z,1840
2018-06-03T10:16:11.507Z,1460
2018-06-03T10:17:11.233Z,1305
2018-06-03T10:18:10.989Z,905
2018-06-03T10:19:11.236Z,770
2018-06-03T10:20:10.979Z,600
2018-06-03T10:21:11.508Z,480
2018-06-03T10:22:10.968Z,660
2018-06-03T10:23:11.037Z,495
2018-06-03T10:24:10.954Z,430
2018-06-03T10:25:11.216Z,410
2018-06-03T10:26:11.213Z,395
2018-06-03T10:27:11.281Z,355
2018-06-03T10:28:10.947Z,360
2018-06-03T10:29:11.492Z,350
2018-06-03T10:30:11.205Z,350
2018-06-03T10:31:10.927Z,365
2018-06-03T10:32:10.657Z,355
2018-06-03T10:33:11.188Z,335
2018-06-03T10:34:11.286Z,330
2018-06-03T10:35:10.382Z,355
2018-06-03T10:36:10.904Z,350
2018-06-03T10:37:11.173Z,350
2018-06-03T10:38:11.168Z,355
2018-06-03T10:39:11.429Z,360
2018-06-03T10:40:11.205Z,370
2018-06-03T10:41:10.818Z,380
2018-06-03T10:42:10.628Z,475
2018-06-03T10:43:10.614Z,485
2018-06-03T10:44:11.426Z,400
2018-06-03T10:45:11.418Z,390
2018-06-03T10:46:10.867Z,385
2018-06-03T10:47:11.130Z,385
2018-06-03T10:48:11.121Z,390
2018-06-03T10:49:11.388Z,385
2018-06-03T10:50:11.114Z,390
2018-06-03T10:51:10.844Z,400
2018-06-03T10:52:11.099Z,415
2018-06-03T10:53:11.095Z,435
2018-06-03T10:54:10.830Z,470
2018-06-03T10:55:10.557Z,495
2018-06-03T10:56:10.823Z,545
2018-06-03T10:57:11.343Z,605
2018-06-03T10:58:10.811Z,705
2018-06-03T10:59:10.817Z,785
2018-06-03T11:00:11.351Z,905
2018-06-03T11:01:10.806Z,945
2018-06-03T11:02:10.796Z,940
2018-06-03T11:03:11.051Z,1180
2018-06-03T11:04:10.782Z,965
2018-06-03T11:05:10.514Z,1185
2018-06-03T11:06:11.310Z,1880
2018-06-03T11:07:11.046Z,915
2018-06-03T11:08:11.040Z,1030
2018-06-03T11:09:10.769Z,1120
2018-06-03T11:10:10.500Z,1115
2018-06-03T11:11:10.497Z,950
2018-06-03T11:12:10.758Z,790
2018-06-03T11:13:11.033Z,915
2018-06-03T11:14:10.767Z,890
2018-06-03T11:15:10.744Z,800
2018-06-03T11:16:10.768Z,885
2018-06-03T11:17:10.491Z,480
2018-06-03T11:18:10.743Z,355
2018-06-03T11:19:11.280Z,305
2018-06-03T11:20:11.284Z,265
2018-06-03T11:21:10.742Z,250
2018-06-03T11:22:10.735Z,245
2018-06-03T11:23:10.753Z,240
2018-06-03T11:24:10.789Z,235
2018-06-03T11:25:11.274Z,235
2018-06-03T11:26:11.285Z,235
2018-06-03T11:27:10.474Z,235
2018-06-03T11:28:10.743Z,235
2018-06-03T11:29:10.997Z,240
2018-06-03T11:30:10.728Z,245
2018-06-03T11:31:10.991Z,250
2018-06-03T11:32:11.257Z,255
2018-06-03T11:33:10.979Z,255
2018-06-03T11:34:10.708Z,255
2018-06-03T11:35:10.709Z,255
2018-06-03T11:36:10.990Z,255
2018-06-03T11:37:10.760Z,260
2018-06-03T11:38:11.232Z,265
2018-06-03T11:39:10.428Z,270
2018-06-03T11:40:10.951Z,275
2018-06-03T11:41:11.233Z,280
2018-06-03T11:42:11.451Z,285
2018-06-03T11:43:10.413Z,290
2018-06-03T11:44:42.772Z,305
2018-06-03T11:45:11.207Z,310
2018-06-03T11:46:10.967Z,310
2018-06-03T11:47:10.935Z,320
2018-06-03T11:48:10.395Z,330
2018-06-03T11:49:10.926Z,335
2018-06-03T11:50:10.388Z,345
2018-06-03T11:51:10.382Z,360
2018-06-03T11:52:10.387Z,375
2018-06-03T11:53:10.634Z,390
2018-06-03T11:54:10.643Z,410
2018-06-03T11:55:10.372Z,415
2018-06-03T11:56:10.370Z,420
2018-06-03T11:57:10.893Z,450
2018-06-03T11:58:10.906Z,430
2018-06-03T11:59:10.681Z,450
2018-06-03T12:00:10.608Z,625
2018-06-03T12:01:10.859Z,590
2018-06-03T12:02:10.598Z,930
2018-06-03T12:03:10.066Z,705
2018-06-03T12:04:10.858Z,560
2018-06-03T12:05:11.126Z,580
2018-06-03T12:06:10.581Z,690
2018-06-03T12:07:10.852Z,645
2018-06-03T12:08:10.962Z,635
2018-06-03T12:09:10.839Z,625
2018-06-03T12:10:10.577Z,770
2018-06-03T12:11:10.829Z,780
2018-06-03T12:12:10.578Z,745
2018-06-03T12:13:10.828Z,760
2018-06-03T12:14:10.820Z,1020
2018-06-03T12:15:10.854Z,1330
2018-06-03T12:16:10.548Z,1395
2018-06-03T12:17:10.556Z,1945
2018-06-03T12:18:10.817Z,1945
2018-06-03T12:19:11.078Z,1905
2018-06-03T12:20:11.080Z,1980
2018-06-03T12:21:10.278Z,1960
2018-06-03T12:22:10.806Z,1905
2018-06-03T12:23:10.824Z,1710
2018-06-03T12:24:10.809Z,1205
2018-06-03T12:25:10.549Z,795
2018-06-03T12:26:10.544Z,665
2018-06-03T12:27:10.811Z,645
2018-06-03T12:28:10.545Z,820
2018-06-03T12:29:10.546Z,1065
2018-06-03T12:30:10.550Z,1230
2018-06-03T12:31:10.810Z,1330
2018-06-03T12:32:10.805Z,1135
2018-06-03T12:33:10.554Z,1110
2018-06-03T12:34:10.548Z,1235
2018-06-03T12:35:10.829Z,1450
2018-06-03T12:36:11.294Z,1615
2018-06-03T12:37:10.592Z,1925
2018-06-03T12:38:10.846Z,2015
2018-06-03T12:39:10.843Z,1975
2018-06-03T12:40:10.835Z,1895
2018-06-03T12:41:11.325Z,1905
2018-06-03T12:42:10.836Z,1675
2018-06-03T12:43:10.844Z,1640
2018-06-03T12:44:10.591Z,1415
2018-06-03T12:45:10.856Z,1555
2018-06-03T12:46:10.856Z,1730
2018-06-03T12:47:10.615Z,1705
2018-06-03T12:48:10.627Z,1785
2018-06-03T12:49:10.881Z,1820
2018-06-03T12:50:10.612Z,1795
2018-06-03T12:51:10.891Z,1730
2018-06-03T12:52:10.620Z,1865
2018-06-03T12:53:10.620Z,1800
2018-06-03T12:54:10.382Z,595
2018-06-03T12:55:10.895Z,445
2018-06-03T12:56:10.650Z,455
2018-06-03T12:57:10.631Z,460
2018-06-03T12:58:10.918Z,465
2018-06-03T12:59:10.926Z,490
2018-06-03T13:00:10.921Z,580
2018-06-03T13:01:10.936Z,1495
2018-06-03T13:02:10.673Z,1795
2018-06-03T13:03:10.152Z,1845
2018-06-03T13:04:10.954Z,1835
2018-06-03T13:05:11.209Z,1820
2018-06-03T13:06:10.678Z,1805
2018-06-03T13:07:10.945Z,1780
2018-06-03T13:08:10.967Z,1820
2018-06-03T13:09:10.426Z,1820
2018-06-03T13:10:11.228Z,1810
2018-06-03T13:11:10.972Z,1795
2018-06-03T13:12:10.708Z,1790
2018-06-03T13:13:10.743Z,1780
2018-06-03T13:14:10.727Z,1795
2018-06-03T13:15:10.723Z,1790
2018-06-03T13:16:11.035Z,1785
2018-06-03T13:17:11.012Z,1805
2018-06-03T13:18:10.789Z,1775
2018-06-03T13:19:11.132Z,1765
2018-06-03T13:20:11.023Z,1760
2018-06-03T13:21:10.752Z,1745
2018-06-03T13:22:10.491Z,1695
2018-06-03T13:23:11.312Z,1670
2018-06-03T13:24:11.039Z,1670
2018-06-03T13:25:11.045Z,1750
2018-06-03T13:26:11.094Z,1770
2018-06-03T13:27:11.070Z,1695
2018-06-03T13:28:10.524Z,480
2018-06-03T13:29:10.805Z,390
2018-06-03T13:30:11.065Z,360
2018-06-03T13:31:11.090Z,380
2018-06-03T13:32:11.405Z,445
2018-06-03T13:33:11.295Z,1515
2018-06-03T13:34:10.590Z,1695
2018-06-03T13:35:11.099Z,1730
2018-06-03T13:36:10.597Z,1750
2018-06-03T13:37:10.597Z,1705
2018-06-03T13:38:11.120Z,1670
2018-06-03T13:39:11.131Z,440
2018-06-03T13:40:11.132Z,420
2018-06-03T13:41:10.608Z,415
2018-06-03T13:42:11.132Z,770
2018-06-03T13:43:10.610Z,1430
2018-06-03T13:44:10.865Z,420
2018-06-03T13:45:10.873Z,375
2018-06-03T13:46:10.354Z,350
2018-06-03T13:47:11.153Z,325
2018-06-03T13:48:11.145Z,310
2018-06-03T13:49:10.896Z,300
2018-06-03T13:50:10.951Z,280
2018-06-03T13:51:10.380Z,265
2018-06-03T13:52:11.168Z,260
2018-06-03T13:53:10.911Z,245
2018-06-03T13:54:11.460Z,240
2018-06-03T13:55:10.671Z,250
2018-06-03T13:56:11.172Z,255
2018-06-03T13:57:10.912Z,260
2018-06-03T13:58:11.176Z,265
2018-06-03T13:59:11.184Z,275
2018-06-03T14:00:10.914Z,285
2018-06-03T14:01:11.453Z,295
2018-06-03T14:02:10.918Z,310